70MA weather

Public forecast

Using degrees Fahrenheit for public forecast. Weather courtesy of forecast.io.

Closest aviation weather report (METAR) to Tobey Hospital Heliport

Closest report is Plymouth Municipal Airport, 9.3 nm (17.2 km) N. Retrieved 2020/08/14 13:52 UTC (44 minutes ago):

KPYM 141352Z AUTO 03010KT 10SM CLR 24/17 A3006 RMK AO2 SLP179 T02390172

Closest aviation forecast (TAF) to Tobey Hospital Heliport

Closest forecast is Cape Cod Coast Guard Air Station, 10.4 nm (19.3 km) SE. Retrieved 2020/08/14 12:22 UTC (2 hours ago):

TAF KFMH 141120Z 1412/1512 03006KT P6SM SCT250 FM141500 04010KT P6SM SCT250 FM142100 05009KT P6SM BKN250 FM150700 03009KT P6SM BKN250 FM150900 03010G20KT P6SM BKN250